createdAt,value
2022-11-30T00:01:24.110Z,26.45
2022-11-30T00:03:56.032Z,29.77
2022-11-30T00:06:24.314Z,27.23
2022-11-30T00:08:58.651Z,27.55
2022-11-30T00:11:28.592Z,28.20
2022-11-30T00:13:55.957Z,24.17
2022-11-30T00:16:23.329Z,26.42
2022-11-30T00:18:51.190Z,27.85
2022-11-30T00:21:18.804Z,32.35
2022-11-30T00:23:47.658Z,28.40
2022-11-30T00:26:16.357Z,28.35
2022-11-30T00:28:45.318Z,26.63
2022-11-30T00:31:13.780Z,31.08
2022-11-30T00:33:41.169Z,26.58
2022-11-30T00:36:12.593Z,31.88
2022-11-30T00:38:40.214Z,28.00
2022-11-30T00:41:07.429Z,28.27
2022-11-30T00:43:34.747Z,28.23
2022-11-30T00:46:01.974Z,25.63
2022-11-30T00:48:29.510Z,33.08
2022-11-30T00:50:56.424Z,31.63
2022-11-30T00:53:23.856Z,24.02
2022-11-30T00:55:50.627Z,29.00
2022-11-30T00:58:17.847Z,28.67
2022-11-30T01:00:44.797Z,28.13
2022-11-30T01:03:13.026Z,25.48
2022-11-30T01:05:40.409Z,24.27
2022-11-30T01:08:09.625Z,30.70
2022-11-30T01:10:39.147Z,26.27
2022-11-30T01:13:07.241Z,27.52
2022-11-30T01:15:39.422Z,26.95
2022-11-30T01:18:07.554Z,27.20
2022-11-30T01:20:34.680Z,26.23
2022-11-30T01:23:01.820Z,27.05
2022-11-30T01:25:28.628Z,25.65
2022-11-30T01:27:55.725Z,29.05
2022-11-30T01:30:22.601Z,25.45
2022-11-30T01:32:49.836Z,26.55
2022-11-30T01:35:16.783Z,27.40
2022-11-30T01:37:43.990Z,28.60
2022-11-30T01:40:12.078Z,32.60
2022-11-30T01:42:46.155Z,28.05
2022-11-30T01:45:14.409Z,28.25
2022-11-30T01:47:46.478Z,29.83
2022-11-30T01:50:19.607Z,26.27
2022-11-30T01:52:50.978Z,24.98
2022-11-30T01:55:34.812Z,29.53
2022-11-30T01:58:12.231Z,24.35
2022-11-30T02:00:44.207Z,26.23
2022-11-30T02:03:17.767Z,30.02
2022-11-30T02:05:45.607Z,29.40
2022-11-30T02:08:13.243Z,25.25
2022-11-30T02:10:44.037Z,29.92
2022-11-30T02:13:37.649Z,26.42
2022-11-30T02:16:15.808Z,27.48
2022-11-30T02:18:55.894Z,26.00
2022-11-30T02:21:38.225Z,24.70
2022-11-30T02:24:21.916Z,29.23
2022-11-30T02:27:26.363Z,26.05
2022-11-30T02:30:01.995Z,32.50
2022-11-30T02:32:41.217Z,30.70
2022-11-30T02:35:10.486Z,30.15
2022-11-30T02:37:38.603Z,33.42
2022-11-30T02:40:10.769Z,26.85
2022-11-30T02:42:37.833Z,35.55
2022-11-30T02:45:08.030Z,28.08
2022-11-30T02:47:40.027Z,32.75
2022-11-30T02:50:27.926Z,25.50
2022-11-30T02:52:55.809Z,25.73
2022-11-30T02:55:23.376Z,27.63
2022-11-30T02:57:50.218Z,35.90
2022-11-30T03:00:17.847Z,26.20
2022-11-30T03:02:44.820Z,30.40
2022-11-30T03:05:12.114Z,26.38
2022-11-30T03:07:38.979Z,27.00
2022-11-30T03:10:06.994Z,26.63
2022-11-30T03:12:34.108Z,27.75
2022-11-30T03:15:01.374Z,28.83
2022-11-30T03:17:28.308Z,30.02
2022-11-30T03:19:55.385Z,28.05
2022-11-30T03:22:24.473Z,25.65
2022-11-30T03:24:51.673Z,28.17
2022-11-30T03:27:18.583Z,27.48
2022-11-30T03:29:46.821Z,30.58
2022-11-30T03:32:14.302Z,27.60
2022-11-30T03:34:41.483Z,29.67
2022-11-30T03:37:08.271Z,29.27
2022-11-30T03:39:35.341Z,26.48
2022-11-30T03:42:02.264Z,26.35
2022-11-30T03:44:30.026Z,30.52
2022-11-30T03:46:56.811Z,36.05
2022-11-30T03:49:24.085Z,31.90
2022-11-30T03:51:50.924Z,26.80
2022-11-30T03:54:18.203Z,29.20
2022-11-30T03:56:45.020Z,27.70
2022-11-30T03:59:12.095Z,27.27
2022-11-30T04:01:41.092Z,27.30
2022-11-30T04:04:08.263Z,26.42
2022-11-30T04:06:35.100Z,26.70
2022-11-30T04:09:03.012Z,26.33
2022-11-30T04:11:30.199Z,30.20
2022-11-30T04:13:57.316Z,22.95
2022-11-30T04:16:24.251Z,23.77
2022-11-30T04:18:51.457Z,31.52
2022-11-30T04:21:19.112Z,25.00
2022-11-30T04:23:46.275Z,25.98
2022-11-30T04:26:16.744Z,25.35
2022-11-30T04:28:44.759Z,30.85
2022-11-30T04:31:12.279Z,30.30
2022-11-30T04:33:39.504Z,30.00
2022-11-30T04:36:07.983Z,32.42
2022-11-30T04:38:53.689Z,27.00
2022-11-30T04:41:20.759Z,28.85
2022-11-30T04:43:47.527Z,29.58
2022-11-30T04:46:14.780Z,34.15
2022-11-30T04:48:41.669Z,27.50
2022-11-30T04:51:09.493Z,27.60
2022-11-30T04:53:37.636Z,27.15
2022-11-30T04:56:10.395Z,28.10
2022-11-30T04:58:39.041Z,26.90
2022-11-30T05:01:07.358Z,24.60
2022-11-30T05:03:34.377Z,27.33
2022-11-30T05:06:02.554Z,25.60
2022-11-30T05:08:29.434Z,26.70
2022-11-30T05:10:56.776Z,26.98
2022-11-30T05:13:25.808Z,26.42
2022-11-30T05:15:53.987Z,28.23
2022-11-30T05:18:21.104Z,26.75
2022-11-30T05:20:49.645Z,24.50
2022-11-30T05:23:17.597Z,31.10
2022-11-30T05:25:45.170Z,29.27
2022-11-30T05:28:12.414Z,28.98
2022-11-30T05:30:41.138Z,31.33
2022-11-30T05:33:08.377Z,26.77
2022-11-30T05:35:36.761Z,29.80
2022-11-30T05:38:04.429Z,28.40
2022-11-30T05:40:33.631Z,25.60
2022-11-30T05:43:02.088Z,28.10
2022-11-30T05:45:30.048Z,31.73
2022-11-30T05:47:56.910Z,27.15
2022-11-30T05:50:24.027Z,26.15
2022-11-30T05:52:57.993Z,33.15
2022-11-30T05:55:25.116Z,24.45
2022-11-30T05:57:52.330Z,26.17
2022-11-30T06:00:20.793Z,28.02
2022-11-30T06:02:47.973Z,23.83
2022-11-30T06:05:15.297Z,28.77
2022-11-30T06:07:42.167Z,26.98
2022-11-30T06:10:09.853Z,26.33
2022-11-30T06:12:36.699Z,23.95
2022-11-30T06:15:04.604Z,24.98
2022-11-30T06:17:31.470Z,39.08
2022-11-30T06:19:58.611Z,27.77
2022-11-30T06:22:25.613Z,25.27
2022-11-30T06:24:52.684Z,26.67
2022-11-30T06:27:19.521Z,27.38
2022-11-30T06:29:46.670Z,35.88
2022-11-30T06:32:13.666Z,32.22
2022-11-30T06:34:40.882Z,32.88
2022-11-30T06:37:07.737Z,33.05
2022-11-30T06:40:04.778Z,30.83
2022-11-30T06:42:21.718Z,31.67
2022-11-30T06:44:49.612Z,30.35
2022-11-30T06:47:16.603Z,32.17
2022-11-30T06:49:43.755Z,28.38
2022-11-30T06:52:10.865Z,36.63
2022-11-30T06:54:37.965Z,31.45
2022-11-30T06:57:04.835Z,31.35
2022-11-30T06:59:31.950Z,32.30
2022-11-30T07:02:01.657Z,36.17
2022-11-30T07:04:33.569Z,30.88
2022-11-30T07:07:00.409Z,30.67
2022-11-30T07:09:27.737Z,26.50
2022-11-30T07:11:54.468Z,33.05
2022-11-30T07:14:21.551Z,36.90
2022-11-30T07:16:48.826Z,34.22
2022-11-30T07:19:16.049Z,32.38
2022-11-30T07:21:42.949Z,33.03
2022-11-30T07:24:30.818Z,27.50
2022-11-30T07:27:00.369Z,32.88
2022-11-30T07:29:28.073Z,37.53
2022-11-30T07:31:55.178Z,35.55
2022-11-30T07:34:22.828Z,31.83
2022-11-30T07:36:49.896Z,33.50
2022-11-30T07:39:17.201Z,31.73
2022-11-30T07:41:44.397Z,32.00
2022-11-30T07:44:11.886Z,32.60
2022-11-30T07:46:39.296Z,34.55
2022-11-30T07:49:09.059Z,31.30
2022-11-30T07:51:36.653Z,33.70
2022-11-30T07:54:04.479Z,30.38
2022-11-30T07:56:31.643Z,29.65
2022-11-30T07:59:01.429Z,31.35
2022-11-30T08:01:31.545Z,28.95
2022-11-30T08:03:59.157Z,26.33
2022-11-30T08:06:29.091Z,32.30
2022-11-30T08:09:00.704Z,37.42
2022-11-30T08:11:30.658Z,33.17
2022-11-30T08:13:57.696Z,29.85
2022-11-30T08:16:27.292Z,30.17
2022-11-30T08:18:58.307Z,32.40
2022-11-30T08:21:25.703Z,34.65
2022-11-30T08:23:56.878Z,29.48
2022-11-30T08:26:26.950Z,36.63
2022-11-30T08:28:55.148Z,32.90
2022-11-30T08:31:31.736Z,36.00
2022-11-30T08:34:08.085Z,27.00
2022-11-30T08:36:35.181Z,28.52
2022-11-30T08:39:05.265Z,28.58
2022-11-30T08:41:33.624Z,31.52
2022-11-30T08:44:01.669Z,27.58
2022-11-30T08:49:24.710Z,28.23
2022-11-30T08:54:47.596Z,26.83
2022-11-30T08:57:21.314Z,28.67
2022-11-30T08:59:48.800Z,29.88
2022-11-30T09:02:18.859Z,29.90
2022-11-30T09:04:49.749Z,27.40
2022-11-30T09:07:16.728Z,25.50
2022-11-30T09:09:44.046Z,32.25
2022-11-30T09:12:11.371Z,30.10
2022-11-30T09:14:38.472Z,32.60
2022-11-30T09:17:05.466Z,37.83
2022-11-30T09:19:33.096Z,33.67
2022-11-30T09:22:00.588Z,34.30
2022-11-30T09:24:27.861Z,29.00
2022-11-30T09:26:56.920Z,31.17
2022-11-30T09:29:24.272Z,27.13
2022-11-30T09:31:51.089Z,27.48
2022-11-30T09:34:18.408Z,31.08
2022-11-30T09:36:45.332Z,28.50
2022-11-30T09:39:13.311Z,28.58
2022-11-30T09:42:05.077Z,27.30
2022-11-30T09:44:38.108Z,27.15
2022-11-30T09:47:08.214Z,26.90
2022-11-30T09:49:39.705Z,26.85
2022-11-30T09:52:31.013Z,31.60
2022-11-30T09:57:48.259Z,25.40
2022-11-30T10:00:19.236Z,25.00
2022-11-30T10:02:46.906Z,24.38
2022-11-30T10:05:21.143Z,23.17
2022-11-30T10:08:10.450Z,25.25
2022-11-30T10:10:45.285Z,22.80
2022-11-30T10:13:42.421Z,29.00
2022-11-30T10:16:27.787Z,21.02
2022-11-30T10:19:06.228Z,24.38
2022-11-30T10:21:42.972Z,27.30
2022-11-30T10:24:28.455Z,24.58
2022-11-30T10:26:57.905Z,27.17
2022-11-30T10:29:31.987Z,24.73
2022-11-30T10:32:01.324Z,23.63
2022-11-30T10:34:34.887Z,19.65
2022-11-30T10:37:17.045Z,21.13
2022-11-30T10:40:05.599Z,26.30
2022-11-30T10:42:46.639Z,21.98
2022-11-30T10:45:17.728Z,22.13
2022-11-30T10:48:01.994Z,23.65
2022-11-30T10:50:30.989Z,22.63
2022-11-30T10:53:00.575Z,22.67
2022-11-30T10:55:31.535Z,24.45
2022-11-30T10:58:07.422Z,29.77
2022-11-30T11:00:34.401Z,22.50
2022-11-30T11:03:01.561Z,35.03
2022-11-30T11:05:30.882Z,23.90
2022-11-30T11:08:17.817Z,29.48
2022-11-30T11:10:51.546Z,25.77
2022-11-30T11:13:35.036Z,26.52
2022-11-30T11:16:03.783Z,23.60
2022-11-30T11:18:32.848Z,25.70
2022-11-30T11:21:16.357Z,25.20
2022-11-30T11:23:45.427Z,24.77
2022-11-30T11:26:25.173Z,21.67
2022-11-30T11:28:54.606Z,25.23
2022-11-30T11:31:49.134Z,23.45
2022-11-30T11:34:34.474Z,23.60
2022-11-30T11:37:29.021Z,29.75
2022-11-30T11:39:56.181Z,23.85
2022-11-30T11:42:23.892Z,23.23
2022-11-30T11:44:55.098Z,23.25
2022-11-30T11:47:43.698Z,23.80
2022-11-30T11:51:05.016Z,20.38
2022-11-30T11:53:39.382Z,21.48
2022-11-30T11:56:32.250Z,23.20
2022-11-30T11:59:06.893Z,19.60
2022-11-30T12:01:49.640Z,21.25
2022-11-30T12:04:53.778Z,23.88
2022-11-30T12:07:36.584Z,25.33
2022-11-30T12:10:50.722Z,23.25
2022-11-30T12:13:17.144Z,16.77
2022-11-30T12:16:08.608Z,23.25
2022-11-30T12:21:15.815Z,26.27
2022-11-30T12:24:19.188Z,24.13
2022-11-30T12:27:17.851Z,22.25
2022-11-30T12:30:04.077Z,24.63
2022-11-30T12:32:56.126Z,23.17
2022-11-30T12:35:27.182Z,25.08
2022-11-30T12:38:11.180Z,25.65
2022-11-30T12:41:05.773Z,20.90
2022-11-30T12:43:56.426Z,24.83
2022-11-30T12:46:32.869Z,21.65
2022-11-30T12:49:13.661Z,26.70
2022-11-30T12:51:52.337Z,22.30
2022-11-30T12:54:33.423Z,26.38
2022-11-30T12:57:29.167Z,21.95
2022-11-30T13:00:20.522Z,21.40
2022-11-30T13:02:56.987Z,28.60
2022-11-30T13:05:39.610Z,20.33
2022-11-30T13:08:26.365Z,23.90
2022-11-30T13:11:11.352Z,25.33
2022-11-30T13:13:49.250Z,25.05
2022-11-30T13:16:16.197Z,28.80
2022-11-30T13:18:43.652Z,23.98
2022-11-30T13:21:24.366Z,30.50
2022-11-30T13:24:10.515Z,25.73
2022-11-30T13:26:42.362Z,30.55
2022-11-30T13:29:20.727Z,23.55
2022-11-30T13:32:33.796Z,22.52
2022-11-30T13:35:29.518Z,26.75
2022-11-30T13:38:35.231Z,28.30
2022-11-30T13:41:01.027Z,25.63
2022-11-30T13:43:48.789Z,42.35
2022-11-30T13:46:21.074Z,30.40
2022-11-30T13:48:48.586Z,25.35
2022-11-30T13:51:36.870Z,27.67
2022-11-30T13:54:46.587Z,24.40
2022-11-30T13:57:29.434Z,29.38
2022-11-30T13:59:58.520Z,22.02
2022-11-30T14:02:32.948Z,26.13
2022-11-30T14:05:19.031Z,23.20
2022-11-30T14:08:07.715Z,21.77
2022-11-30T14:10:37.787Z,23.60
2022-11-30T14:13:29.184Z,22.05
2022-11-30T14:16:01.423Z,23.55
2022-11-30T14:18:40.478Z,23.40
2022-11-30T14:21:29.374Z,23.67
2022-11-30T14:24:07.801Z,26.65
2022-11-30T14:26:43.861Z,25.55
2022-11-30T14:29:19.070Z,27.50
2022-11-30T14:32:06.426Z,25.20
2022-11-30T14:34:44.282Z,21.40
2022-11-30T14:37:27.056Z,22.80
2022-11-30T14:39:56.710Z,25.00
2022-11-30T14:42:26.350Z,29.38
2022-11-30T14:44:55.133Z,30.17
2022-11-30T14:47:34.516Z,28.60
2022-11-30T14:50:05.913Z,25.58
2022-11-30T14:52:46.389Z,21.67
2022-11-30T14:55:25.817Z,22.30
2022-11-30T14:58:10.923Z,25.40
2022-11-30T15:00:41.009Z,20.60
2022-11-30T15:03:20.689Z,26.10
2022-11-30T15:05:54.816Z,22.98
2022-11-30T15:08:23.144Z,24.02
2022-11-30T15:10:50.873Z,22.35
2022-11-30T15:13:20.386Z,26.08
2022-11-30T15:15:55.773Z,26.48
2022-11-30T15:18:24.890Z,21.80
2022-11-30T15:23:32.166Z,23.13
2022-11-30T15:26:03.449Z,19.77
2022-11-30T15:28:41.050Z,22.30
2022-11-30T15:31:14.603Z,24.98
2022-11-30T15:33:45.746Z,28.50
2022-11-30T15:36:28.013Z,23.08
2022-11-30T15:39:03.464Z,23.00
2022-11-30T15:43:59.997Z,24.65
2022-11-30T15:47:00.857Z,25.88
2022-11-30T15:49:33.313Z,31.33
2022-11-30T15:52:16.225Z,27.60
2022-11-30T15:54:58.933Z,28.92
2022-11-30T15:57:27.539Z,26.83
2022-11-30T16:00:23.732Z,29.08
2022-11-30T16:03:10.754Z,29.95
2022-11-30T16:05:39.360Z,29.35
2022-11-30T16:08:16.735Z,26.88
2022-11-30T16:10:44.130Z,26.95
2022-11-30T16:13:20.617Z,25.42
2022-11-30T16:15:49.831Z,27.95
2022-11-30T16:18:20.344Z,26.85
2022-11-30T16:20:57.441Z,26.35
2022-11-30T16:23:26.094Z,28.20
2022-11-30T16:25:53.862Z,25.33
2022-11-30T16:28:22.234Z,26.90
2022-11-30T16:30:49.965Z,31.45
2022-11-30T16:33:20.300Z,28.63
2022-11-30T16:35:53.898Z,25.88
2022-11-30T16:38:22.333Z,28.13
2022-11-30T16:40:49.461Z,20.45
2022-11-30T16:43:16.905Z,23.27
2022-11-30T16:45:46.949Z,21.98
2022-11-30T16:48:14.405Z,20.50
2022-11-30T16:50:41.762Z,24.88
2022-11-30T16:53:16.697Z,25.23
2022-11-30T16:55:43.816Z,19.90
2022-11-30T16:58:11.368Z,21.63
2022-11-30T17:00:40.175Z,20.55
2022-11-30T17:03:30.240Z,20.20
2022-11-30T17:05:57.227Z,23.02
2022-11-30T17:08:42.484Z,17.05
2022-11-30T17:11:17.633Z,18.42
2022-11-30T17:13:44.692Z,21.13
2022-11-30T17:16:12.304Z,20.35
2022-11-30T17:18:39.305Z,21.52
2022-11-30T17:21:06.964Z,19.80
2022-11-30T17:23:33.909Z,20.92
2022-11-30T17:26:01.395Z,20.40
2022-11-30T17:28:28.283Z,20.10
2022-11-30T17:30:55.679Z,20.98
2022-11-30T17:33:22.579Z,17.25
2022-11-30T17:35:50.706Z,16.08
2022-11-30T17:38:17.691Z,18.13
2022-11-30T17:40:45.296Z,17.90
2022-11-30T17:43:12.077Z,16.38
2022-11-30T17:45:40.318Z,15.82
2022-11-30T17:48:07.227Z,21.17
2022-11-30T17:50:34.424Z,19.50
2022-11-30T17:53:01.431Z,16.15
2022-11-30T17:55:28.603Z,19.27
2022-11-30T17:57:55.606Z,16.08
2022-11-30T18:00:23.451Z,17.70
2022-11-30T18:02:53.959Z,15.23
2022-11-30T18:05:21.681Z,13.75
2022-11-30T18:07:48.863Z,13.02
2022-11-30T18:10:16.629Z,15.23
2022-11-30T18:12:43.439Z,13.60
2022-11-30T18:15:11.081Z,15.88
2022-11-30T18:17:37.829Z,14.23
2022-11-30T18:20:06.227Z,14.25
2022-11-30T18:22:33.609Z,17.98
2022-11-30T18:25:00.969Z,14.48
2022-11-30T18:27:28.377Z,17.38
2022-11-30T18:29:55.739Z,17.73
2022-11-30T18:32:22.626Z,18.65
2022-11-30T18:34:50.159Z,20.58
2022-11-30T18:37:17.295Z,16.35
2022-11-30T18:39:44.494Z,13.95
2022-11-30T18:42:11.519Z,18.55
2022-11-30T18:44:38.839Z,17.95
2022-11-30T18:47:05.788Z,18.00
2022-11-30T18:49:32.866Z,17.00
2022-11-30T18:51:59.987Z,17.95
2022-11-30T18:54:27.204Z,14.95
2022-11-30T18:56:54.230Z,18.98
2022-11-30T18:59:21.517Z,17.15
2022-11-30T19:01:50.885Z,20.15
2022-11-30T19:04:18.131Z,16.33
2022-11-30T19:06:45.039Z,15.57
2022-11-30T19:09:14.481Z,19.95
2022-11-30T19:11:42.579Z,18.23
2022-11-30T19:14:13.348Z,17.30
2022-11-30T19:16:41.060Z,15.63
2022-11-30T19:19:10.353Z,19.60
2022-11-30T19:21:37.227Z,17.77
2022-11-30T19:24:04.830Z,18.02
2022-11-30T19:26:31.734Z,18.73
2022-11-30T19:28:59.203Z,17.95
2022-11-30T19:31:26.404Z,20.20
2022-11-30T19:33:55.590Z,21.05
2022-11-30T19:36:25.026Z,23.00
2022-11-30T19:38:52.919Z,18.20
2022-11-30T19:41:21.402Z,22.08
2022-11-30T19:44:01.069Z,20.27
2022-11-30T19:46:31.844Z,20.58
2022-11-30T19:49:01.457Z,17.60
2022-11-30T19:51:29.659Z,15.95
2022-11-30T19:53:57.707Z,20.80
2022-11-30T19:56:25.596Z,17.05
2022-11-30T19:58:53.611Z,18.52
2022-11-30T20:01:23.708Z,22.42
2022-11-30T20:03:56.204Z,18.52
2022-11-30T20:06:29.644Z,20.30
2022-11-30T20:08:57.371Z,19.27
2022-11-30T20:11:24.294Z,20.40
2022-11-30T20:13:51.930Z,17.15
2022-11-30T20:16:20.623Z,21.55
2022-11-30T20:18:57.266Z,19.85
2022-11-30T20:21:26.389Z,15.48
2022-11-30T20:23:58.312Z,18.85
2022-11-30T20:28:58.614Z,12.82
2022-11-30T20:31:26.875Z,14.93
2022-11-30T20:33:56.486Z,13.45
2022-11-30T20:36:24.120Z,14.75
2022-11-30T20:38:51.409Z,13.45
2022-11-30T20:41:21.906Z,15.15
2022-11-30T20:43:49.951Z,17.52
2022-11-30T20:46:18.863Z,20.02
2022-11-30T20:48:46.808Z,13.82
2022-11-30T20:51:34.108Z,16.92
2022-11-30T20:54:03.899Z,16.08
2022-11-30T20:56:31.676Z,18.67
2022-11-30T20:59:03.601Z,17.63
2022-11-30T21:03:59.656Z,17.17
2022-11-30T21:06:27.674Z,21.05
2022-11-30T21:08:54.862Z,19.05
2022-11-30T21:11:22.388Z,19.30
2022-11-30T21:13:50.842Z,18.55
2022-11-30T21:16:26.939Z,16.95
2022-11-30T21:18:55.840Z,21.10
2022-11-30T21:21:25.098Z,15.70
2022-11-30T21:23:52.491Z,18.40
2022-11-30T21:26:22.169Z,19.55
2022-11-30T21:28:53.219Z,17.63
2022-11-30T21:31:21.923Z,21.85
2022-11-30T21:33:53.269Z,18.65
2022-11-30T21:36:22.452Z,18.65
2022-11-30T21:39:00.847Z,19.65
2022-11-30T21:41:31.289Z,17.80
2022-11-30T21:43:58.392Z,24.83
2022-11-30T21:46:25.831Z,18.13
2022-11-30T21:48:53.144Z,21.90
2022-11-30T21:51:23.242Z,26.08
2022-11-30T21:53:53.702Z,20.35
2022-11-30T21:56:23.432Z,18.92
2022-11-30T21:58:51.384Z,19.85
2022-11-30T22:01:20.991Z,20.30
2022-11-30T22:03:48.380Z,21.17
2022-11-30T22:06:17.448Z,18.08
2022-11-30T22:08:45.708Z,22.17
2022-11-30T22:11:14.607Z,18.08
2022-11-30T22:13:41.899Z,18.85
2022-11-30T22:16:14.581Z,18.67
2022-11-30T22:18:43.847Z,18.83
2022-11-30T22:21:11.887Z,18.35
2022-11-30T22:23:41.545Z,22.27
2022-11-30T22:26:13.369Z,20.42
2022-11-30T22:28:45.750Z,20.73
2022-11-30T22:31:15.512Z,21.75
2022-11-30T22:33:43.899Z,24.45
2022-11-30T22:36:15.516Z,22.60
2022-11-30T22:38:43.660Z,23.45
2022-11-30T22:41:23.855Z,24.77
2022-11-30T22:43:53.049Z,26.80
2022-11-30T22:46:22.798Z,22.92
2022-11-30T22:48:50.833Z,23.17
2022-11-30T22:51:20.542Z,21.33
2022-11-30T22:53:49.016Z,21.23
2022-11-30T22:56:19.029Z,23.27
2022-11-30T22:58:47.610Z,17.27
2022-11-30T23:01:23.341Z,18.00
2022-11-30T23:03:53.543Z,18.48
2022-11-30T23:06:21.140Z,20.45
2022-11-30T23:08:49.712Z,25.02
2022-11-30T23:11:19.639Z,17.83
2022-11-30T23:13:47.091Z,18.35
2022-11-30T23:16:14.662Z,25.67
2022-11-30T23:18:48.462Z,18.88
2022-11-30T23:21:23.744Z,25.67
2022-11-30T23:23:51.094Z,23.00
2022-11-30T23:26:21.418Z,22.48
2022-11-30T23:28:50.828Z,24.00
2022-11-30T23:31:34.502Z,21.73
2022-11-30T23:34:05.594Z,22.05
2022-11-30T23:36:33.994Z,22.40
2022-11-30T23:39:07.323Z,20.92
2022-11-30T23:41:34.292Z,23.60
2022-11-30T23:44:01.879Z,20.77
2022-11-30T23:46:29.204Z,22.67
2022-11-30T23:48:56.514Z,18.25
2022-11-30T23:51:24.335Z,23.65
2022-11-30T23:53:51.669Z,20.60
2022-11-30T23:56:20.496Z,22.23
2022-11-30T23:58:48.293Z,23.35
